Time;durP1;ratioP1;P1;durP2;ratioP2;P2;SDS_P1;SDS_P2;PMS_P1;PMS_P2;Temp;Humidity;BMP_temperature;BMP_pressure;BME280_temperature;BME280_humidity;BME280_pressure;Samples;Min_cycle;Max_cycle;Signal;HPM_P1;HPM_P2
2022/04/09 00:00:40;;;;;;;;;;;21.10;43.30;;;;;;6284638;27;19923;-46
2022/04/09 00:03:41;;;;;;;;;;;21.20;43.30;;;;;;6272032;28;20949;-44
2022/04/09 00:06:42;;;;;;;;;;;21.20;43.30;;;;;;6297539;27;19993;-44
2022/04/09 00:09:44;;;;;;;;;;;21.30;43.40;;;;;;6294979;27;19947;-45
2022/04/09 00:12:47;;;;;;;;;;;21.30;43.40;;;;;;6289628;27;20035;-47
2022/04/09 00:15:48;;;;;;;;;;;21.40;43.40;;;;;;6290396;28;19965;-47
2022/04/09 00:18:49;;;;;;;;;;;21.30;43.30;;;;;;6295007;27;19997;-49
2022/04/09 00:21:51;;;;;;;;;;;21.20;43.30;;;;;;6298497;27;19941;-45
2022/04/09 00:24:53;;;;;;;;;;;21.30;43.40;;;;;;6285962;28;19925;-45
2022/04/09 00:27:55;;;;;;;;;;;21.30;43.40;;;;;;6297701;27;19931;-47
2022/04/09 00:30:57;;;;;;;;;;;21.00;43.20;;;;;;6299602;27;19934;-49
2022/04/09 00:33:59;;;;;;;;;;;21.20;43.30;;;;;;6290688;27;21601;-45
2022/04/09 00:37:00;;;;;;;;;;;21.10;43.20;;;;;;6280750;28;19993;-45
2022/04/09 00:40:02;;;;;;;;;;;21.30;43.30;;;;;;6300405;27;20054;-46
2022/04/09 00:43:04;;;;;;;;;;;21.20;43.90;;;;;;6300916;27;20038;-44
2022/04/09 00:46:05;;;;;;;;;;;21.10;43.20;;;;;;6293415;27;20043;-45
2022/04/09 00:49:07;;;;;;;;;;;21.30;43.40;;;;;;6286530;27;20851;-48
2022/04/09 00:52:09;;;;;;;;;;;21.20;43.20;;;;;;6309468;27;21026;-46
2022/04/09 00:55:11;;;;;;;;;;;21.10;43.20;;;;;;6306955;27;20709;-48
2022/04/09 00:58:14;;;;;;;;;;;21.00;43.10;;;;;;6305981;27;19993;-48
2022/04/09 01:01:16;;;;;;;;;;;21.20;43.20;;;;;;6302789;27;19923;-47
2022/04/09 01:04:18;;;;;;;;;;;21.20;43.30;;;;;;6290793;27;20746;-46
2022/04/09 01:07:20;;;;;;;;;;;21.20;43.20;;;;;;6293943;27;19935;-47
2022/04/09 01:10:22;;;;;;;;;;;21.20;43.20;;;;;;6291330;27;19920;-47
2022/04/09 01:13:24;;;;;;;;;;;21.10;43.20;;;;;;6298928;27;19919;-45
2022/04/09 01:16:28;;;;;;;;;;;21.10;43.20;;;;;;6308673;27;19928;-47
2022/04/09 01:19:31;;;;;;;;;;;21.10;43.10;;;;;;6282321;27;19928;-46
2022/04/09 01:22:33;;;;;;;;;;;21.30;43.30;;;;;;6281209;27;20018;-45
2022/04/09 01:25:35;;;;;;;;;;;21.10;43.10;;;;;;6283770;27;20348;-45
2022/04/09 01:28:37;;;;;;;;;;;21.20;43.20;;;;;;6303217;27;20054;-44
2022/04/09 01:31:39;;;;;;;;;;;21.10;43.10;;;;;;6295773;27;19931;-44
2022/04/09 01:34:41;;;;;;;;;;;21.10;43.10;;;;;;6292070;27;19931;-45
2022/04/09 01:37:43;;;;;;;;;;;21.20;43.20;;;;;;6302777;27;19923;-44
2022/04/09 01:40:44;;;;;;;;;;;21.20;43.20;;;;;;6296978;27;19981;-46
2022/04/09 01:43:47;;;;;;;;;;;21.00;43.10;;;;;;6279611;27;20128;-44
2022/04/09 01:46:48;;;;;;;;;;;21.10;43.10;;;;;;6295695;27;20213;-44
2022/04/09 01:49:50;;;;;;;;;;;21.10;43.10;;;;;;6297936;27;19923;-46
2022/04/09 01:52:52;;;;;;;;;;;21.10;43.10;;;;;;6274843;28;19924;-45
2022/04/09 01:55:53;;;;;;;;;;;20.90;43.00;;;;;;6290263;28;20367;-45
2022/04/09 01:58:58;;;;;;;;;;;21.00;43.10;;;;;;6295944;27;20265;-46
2022/04/09 02:02:00;;;;;;;;;;;21.10;43.10;;;;;;6297932;27;19995;-45
2022/04/09 02:05:03;;;;;;;;;;;20.90;43.00;;;;;;6299530;27;20628;-44
2022/04/09 02:08:05;;;;;;;;;;;20.80;42.90;;;;;;6305178;27;19970;-47
2022/04/09 02:11:07;;;;;;;;;;;21.00;43.00;;;;;;6280299;28;19927;-45
2022/04/09 02:14:10;;;;;;;;;;;21.00;43.00;;;;;;6281019;28;19928;-45
2022/04/09 02:17:12;;;;;;;;;;;21.00;43.00;;;;;;6280502;28;19938;-45
2022/04/09 02:20:15;;;;;;;;;;;21.10;43.10;;;;;;6301559;27;19923;-44
2022/04/09 02:23:17;;;;;;;;;;;21.10;43.10;;;;;;6292249;27;19930;-46
2022/04/09 02:26:18;;;;;;;;;;;21.10;43.10;;;;;;6276782;28;20088;-46
2022/04/09 02:29:20;;;;;;;;;;;21.00;43.00;;;;;;6273163;28;19939;-44
2022/04/09 02:32:22;;;;;;;;;;;21.00;43.00;;;;;;6275939;28;19953;-45
2022/04/09 02:35:23;;;;;;;;;;;20.90;43.00;;;;;;6254754;28;20042;-46
2022/04/09 02:38:26;;;;;;;;;;;21.00;43.00;;;;;;6282830;27;21121;-45
2022/04/09 02:41:29;;;;;;;;;;;21.00;43.00;;;;;;6279358;28;19927;-45
2022/04/09 02:44:32;;;;;;;;;;;21.10;43.00;;;;;;6291897;27;19924;-46
2022/04/09 02:47:34;;;;;;;;;;;21.00;43.00;;;;;;6279026;28;20932;-44
2022/04/09 02:50:37;;;;;;;;;;;20.80;42.90;;;;;;6292741;27;20360;-45
2022/04/09 02:53:39;;;;;;;;;;;20.90;42.90;;;;;;6278579;28;19969;-49
2022/04/09 02:56:41;;;;;;;;;;;20.90;43.00;;;;;;6292338;27;20367;-45
2022/04/09 02:59:42;;;;;;;;;;;20.80;42.90;;;;;;6293934;27;19928;-45
2022/04/09 03:02:44;;;;;;;;;;;20.90;42.90;;;;;;6286395;27;20011;-45
2022/04/09 03:05:55;;;;;;;;;;;20.70;42.80;;;;;;6291661;27;20173;-45
2022/04/09 03:08:57;;;;;;;;;;;20.70;42.80;;;;;;6299107;27;20034;-45
2022/04/09 03:11:58;;;;;;;;;;;20.80;42.80;;;;;;6275944;27;19927;-44
2022/04/09 03:15:00;;;;;;;;;;;21.00;42.90;;;;;;6266529;28;20736;-45
2022/04/09 03:18:02;;;;;;;;;;;20.80;42.80;;;;;;6263927;27;20291;-45
2022/04/09 03:21:07;;;;;;;;;;;20.80;42.80;;;;;;6278948;27;20135;-44
2022/04/09 03:24:13;;;;;;;;;;;20.80;42.80;;;;;;6281678;28;19923;-45
2022/04/09 03:27:14;;;;;;;;;;;20.90;42.80;;;;;;6277916;28;20729;-47
2022/04/09 03:30:16;;;;;;;;;;;20.70;42.70;;;;;;6284830;28;19971;-45
2022/04/09 03:33:18;;;;;;;;;;;20.80;42.80;;;;;;6288624;27;19948;-46
2022/04/09 03:36:23;;;;;;;;;;;20.70;42.70;;;;;;6284863;27;19950;-45
2022/04/09 03:39:26;;;;;;;;;;;20.80;42.80;;;;;;6280188;27;20302;-46
2022/04/09 03:42:27;;;;;;;;;;;20.80;42.80;;;;;;6292490;27;20083;-45
2022/04/09 03:45:30;;;;;;;;;;;20.80;42.70;;;;;;6285189;27;19924;-44
2022/04/09 03:48:32;;;;;;;;;;;20.80;42.80;;;;;;6279062;27;20189;-45
2022/04/09 03:51:34;;;;;;;;;;;20.80;42.70;;;;;;6273249;28;20755;-44
2022/04/09 03:54:38;;;;;;;;;;;20.90;42.80;;;;;;6270431;28;19966;-46
2022/04/09 03:57:40;;;;;;;;;;;20.60;42.70;;;;;;6286761;27;20391;-46
2022/04/09 04:00:43;;;;;;;;;;;20.70;42.70;;;;;;6288206;27;20359;-45
2022/04/09 04:03:45;;;;;;;;;;;20.80;42.70;;;;;;6284965;27;19970;-45
2022/04/09 04:06:48;;;;;;;;;;;20.80;42.70;;;;;;6278024;28;20109;-46
2022/04/09 04:09:50;;;;;;;;;;;20.80;42.70;;;;;;6269480;28;19924;-44
2022/04/09 04:12:53;;;;;;;;;;;20.80;42.70;;;;;;6272512;28;20596;-47
2022/04/09 04:16:03;;;;;;;;;;;20.70;42.70;;;;;;6284199;27;20804;-44
2022/04/09 04:19:06;;;;;;;;;;;20.70;42.60;;;;;;6278488;27;20671;-46
2022/04/09 04:22:08;;;;;;;;;;;20.80;42.70;;;;;;6288030;27;19927;-45
2022/04/09 04:25:12;;;;;;;;;;;20.80;42.70;;;;;;6263697;28;20193;-44
2022/04/09 04:28:16;;;;;;;;;;;20.70;42.70;;;;;;6275853;27;19931;-45
2022/04/09 04:31:19;;;;;;;;;;;20.50;42.50;;;;;;6282752;27;19928;-46
2022/04/09 04:34:20;;;;;;;;;;;20.70;42.70;;;;;;6266238;27;20240;-46
2022/04/09 04:37:22;;;;;;;;;;;20.70;42.70;;;;;;6268754;27;19931;-45
2022/04/09 04:40:25;;;;;;;;;;;20.60;42.60;;;;;;6286727;27;19927;-44
2022/04/09 04:43:32;;;;;;;;;;;20.50;42.50;;;;;;6274925;27;20024;-45
2022/04/09 04:46:38;;;;;;;;;;;20.60;42.60;;;;;;6290664;27;20103;-45
2022/04/09 04:49:41;;;;;;;;;;;20.60;42.60;;;;;;6289812;27;19934;-46
2022/04/09 04:52:43;;;;;;;;;;;20.60;42.70;;;;;;6281408;28;19939;-43
2022/04/09 04:55:46;;;;;;;;;;;20.70;42.60;;;;;;6255694;28;20010;-44
2022/04/09 04:58:49;;;;;;;;;;;20.90;42.80;;;;;;6283117;27;19977;-45
2022/04/09 05:01:51;;;;;;;;;;;20.40;42.50;;;;;;6274216;27;20042;-44
2022/04/09 05:04:54;;;;;;;;;;;20.40;42.50;;;;;;6278898;28;20658;-44
2022/04/09 05:07:55;;;;;;;;;;;20.30;42.40;;;;;;6266313;28;19971;-45
2022/04/09 05:10:59;;;;;;;;;;;20.60;42.50;;;;;;6260943;28;20374;-44
2022/04/09 05:14:05;;;;;;;;;;;20.60;42.50;;;;;;6273460;27;20175;-46
2022/04/09 05:17:10;;;;;;;;;;;20.50;42.50;;;;;;6269903;28;19927;-44
2022/04/09 05:20:14;;;;;;;;;;;20.40;42.40;;;;;;6281460;28;19927;-44
2022/04/09 05:23:17;;;;;;;;;;;20.60;42.50;;;;;;6282841;28;20070;-45
2022/04/09 05:26:20;;;;;;;;;;;20.50;42.40;;;;;;6257497;27;20095;-45
2022/04/09 05:29:23;;;;;;;;;;;20.50;42.40;;;;;;6288706;28;20467;-46
2022/04/09 05:32:25;;;;;;;;;;;20.60;42.50;;;;;;6289039;27;20105;-45
2022/04/09 05:35:27;;;;;;;;;;;20.50;42.40;;;;;;6279996;27;19928;-44
2022/04/09 05:38:30;;;;;;;;;;;20.30;42.30;;;;;;6281656;28;19924;-44
2022/04/09 05:41:34;;;;;;;;;;;20.40;42.40;;;;;;6274662;28;20347;-47
2022/04/09 05:44:37;;;;;;;;;;;20.50;42.40;;;;;;6283638;28;20042;-45
2022/04/09 05:47:39;;;;;;;;;;;20.50;42.40;;;;;;6271463;27;20208;-45
2022/04/09 05:50:41;;;;;;;;;;;20.40;42.30;;;;;;6286227;27;20065;-44
2022/04/09 05:53:43;;;;;;;;;;;20.40;42.30;;;;;;6283788;28;20108;-44
2022/04/09 05:56:45;;;;;;;;;;;20.50;42.40;;;;;;6266800;27;19935;-44
2022/04/09 05:59:47;;;;;;;;;;;20.40;42.20;;;;;;6284009;27;20140;-44
2022/04/09 06:02:49;;;;;;;;;;;20.40;42.90;;;;;;6267691;28;20435;-44
2022/04/09 06:06:02;;;;;;;;;;;20.50;42.30;;;;;;6282616;27;20083;-44
2022/04/09 06:09:23;;;;;;;;;;;20.50;42.30;;;;;;6278037;27;20389;-44
2022/04/09 06:12:28;;;;;;;;;;;20.30;42.20;;;;;;6281643;27;19950;-44
2022/04/09 06:15:36;;;;;;;;;;;20.40;42.20;;;;;;6292976;27;20101;-44
2022/04/09 06:18:43;;;;;;;;;;;20.50;42.20;;;;;;6279409;27;19924;-43
2022/04/09 06:21:45;;;;;;;;;;;20.40;42.20;;;;;;6268164;28;20151;-45
2022/04/09 06:24:51;;;;;;;;;;;20.50;42.20;;;;;;6274071;28;19924;-49
2022/04/09 06:27:54;;;;;;;;;;;20.40;42.10;;;;;;6284256;27;20355;-46
2022/04/09 06:30:58;;;;;;;;;;;20.50;42.20;;;;;;6282932;27;20128;-45
2022/04/09 06:34:00;;;;;;;;;;;20.30;42.10;;;;;;6277466;27;19927;-45
2022/04/09 06:37:02;;;;;;;;;;;20.40;42.10;;;;;;6287138;27;20234;-47
2022/04/09 06:40:10;;;;;;;;;;;20.60;42.20;;;;;;6270443;27;20267;-44
2022/04/09 06:43:13;;;;;;;;;;;20.30;42.00;;;;;;6275036;28;20157;-44
2022/04/09 06:46:35;;;;;;;;;;;20.30;41.90;;;;;;6279492;28;20160;-48
2022/04/09 06:49:50;;;;;;;;;;;20.50;42.10;;;;;;6281803;27;19928;-47
2022/04/09 06:52:55;;;;;;;;;;;20.40;42.00;;;;;;6270419;28;19931;-42
2022/04/09 06:56:04;;;;;;;;;;;20.40;41.90;;;;;;6269324;28;20138;-44
2022/04/09 06:59:07;;;;;;;;;;;20.40;41.90;;;;;;6279894;27;19934;-43
2022/04/09 07:02:08;;;;;;;;;;;20.40;41.90;;;;;;6253657;28;20236;-43
2022/04/09 07:05:10;;;;;;;;;;;20.30;41.90;;;;;;6266197;28;20759;-44
2022/04/09 07:08:11;;;;;;;;;;;20.30;41.80;;;;;;6273259;28;19963;-46
2022/04/09 07:11:12;;;;;;;;;;;20.40;41.80;;;;;;6264369;28;19935;-43
2022/04/09 07:14:14;;;;;;;;;;;20.50;41.80;;;;;;6273557;28;20807;-44
2022/04/09 07:17:19;;;;;;;;;;;20.40;41.80;;;;;;6287619;27;20044;-44
2022/04/09 07:20:20;;;;;;;;;;;20.40;41.70;;;;;;6276898;28;20497;-44
2022/04/09 07:23:21;;;;;;;;;;;20.20;41.60;;;;;;6275674;28;19956;-43
2022/04/09 07:26:23;;;;;;;;;;;20.50;41.80;;;;;;6280562;28;19954;-44
2022/04/09 07:29:25;;;;;;;;;;;20.50;41.70;;;;;;6273481;28;20040;-45
2022/04/09 07:32:26;;;;;;;;;;;20.50;41.70;;;;;;6285902;27;20614;-43
2022/04/09 07:35:28;;;;;;;;;;;20.50;41.70;;;;;;6278398;28;19945;-44
2022/04/09 07:38:29;;;;;;;;;;;20.30;41.60;;;;;;6270714;28;19927;-45
2022/04/09 07:41:30;;;;;;;;;;;20.50;41.70;;;;;;6275561;27;20478;-43
2022/04/09 07:44:32;;;;;;;;;;;20.30;41.50;;;;;;6283678;27;20307;-45
2022/04/09 07:47:34;;;;;;;;;;;20.50;41.60;;;;;;6251425;28;20381;-44
2022/04/09 07:50:35;;;;;;;;;;;20.50;41.60;;;;;;6274911;28;20051;-44
2022/04/09 07:53:36;;;;;;;;;;;20.40;41.50;;;;;;6282088;27;19927;-45
2022/04/09 07:56:38;;;;;;;;;;;20.60;41.60;;;;;;6274854;28;20715;-44
2022/04/09 07:59:40;;;;;;;;;;;20.60;41.60;;;;;;6276719;27;20378;-44
2022/04/09 08:02:41;;;;;;;;;;;20.60;41.60;;;;;;6278684;27;20830;-43
2022/04/09 08:05:43;;;;;;;;;;;20.40;41.50;;;;;;6286445;27;19920;-44
2022/04/09 08:08:45;;;;;;;;;;;20.60;41.60;;;;;;6275940;28;19950;-46
2022/04/09 08:11:46;;;;;;;;;;;20.60;41.60;;;;;;6268121;28;20062;-43
2022/04/09 08:14:48;;;;;;;;;;;20.50;41.50;;;;;;6289711;27;19989;-45
2022/04/09 08:17:54;;;;;;;;;;;20.60;41.50;;;;;;6277854;27;19955;-45
2022/04/09 08:20:55;;;;;;;;;;;20.60;41.40;;;;;;6269144;28;19959;-44
2022/04/09 08:23:56;;;;;;;;;;;20.60;41.30;;;;;;6272110;28;19973;-45
2022/04/09 08:26:58;;;;;;;;;;;20.70;41.40;;;;;;6279860;27;20014;-44
2022/04/09 08:30:00;;;;;;;;;;;20.70;41.40;;;;;;6272189;28;19929;-43
2022/04/09 08:33:05;;;;;;;;;;;20.70;41.30;;;;;;6271441;28;20392;-45
2022/04/09 08:36:06;;;;;;;;;;;20.70;41.20;;;;;;6276265;28;20709;-46
2022/04/09 08:39:08;;;;;;;;;;;20.80;41.20;;;;;;6284047;27;20049;-44
2022/04/09 08:42:10;;;;;;;;;;;20.90;41.20;;;;;;6264555;28;19934;-43
2022/04/09 08:45:12;;;;;;;;;;;20.70;41.10;;;;;;6267189;28;20381;-44
2022/04/09 08:48:14;;;;;;;;;;;20.90;41.20;;;;;;6273160;28;20483;-45
2022/04/09 08:51:15;;;;;;;;;;;20.90;41.10;;;;;;6276475;28;20760;-45
2022/04/09 08:54:34;;;;;;;;;;;20.90;41.10;;;;;;6286180;27;19931;-44
2022/04/09 08:57:36;;;;;;;;;;;21.00;41.10;;;;;;6272199;27;20799;-43
2022/04/09 09:00:37;;;;;;;;;;;20.90;41.00;;;;;;6277060;27;20476;-46
2022/04/09 09:03:39;;;;;;;;;;;20.80;40.90;;;;;;6287790;27;20058;-43
2022/04/09 09:06:44;;;;;;;;;;;21.10;41.10;;;;;;6268404;28;20498;-45
2022/04/09 09:09:45;;;;;;;;;;;21.10;41.00;;;;;;6269891;28;20213;-44
2022/04/09 09:12:56;;;;;;;;;;;21.00;40.90;;;;;;6260368;28;19948;-43
2022/04/09 09:15:58;;;;;;;;;;;21.40;41.10;;;;;;6273152;28;19923;-43
2022/04/09 09:19:02;;;;;;;;;;;21.00;40.90;;;;;;6269699;28;19970;-44
2022/04/09 09:22:05;;;;;;;;;;;20.80;40.70;;;;;;6275044;27;20113;-44
2022/04/09 09:25:08;;;;;;;;;;;21.10;40.90;;;;;;6271773;28;20871;-45
2022/04/09 09:28:12;;;;;;;;;;;20.80;40.70;;;;;;6266585;28;20143;-44
2022/04/09 09:31:15;;;;;;;;;;;21.10;40.90;;;;;;6281493;27;20180;-43
2022/04/09 09:34:19;;;;;;;;;;;21.30;40.90;;;;;;6270790;28;20255;-44
2022/04/09 09:37:21;;;;;;;;;;;21.10;40.80;;;;;;6250409;28;19927;-44
2022/04/09 09:40:31;;;;;;;;;;;21.20;40.70;;;;;;6283358;28;20283;-45
2022/04/09 09:43:33;;;;;;;;;;;21.20;40.70;;;;;;6265860;28;20223;-43
2022/04/09 09:46:35;;;;;;;;;;;21.30;40.70;;;;;;6263541;28;19931;-44
2022/04/09 09:49:37;;;;;;;;;;;21.30;40.60;;;;;;6267541;28;20010;-45
2022/04/09 09:52:39;;;;;;;;;;;21.40;40.60;;;;;;6256674;28;20321;-45
2022/04/09 09:55:41;;;;;;;;;;;21.50;40.60;;;;;;6272656;27;20257;-44
2022/04/09 09:58:43;;;;;;;;;;;21.50;40.60;;;;;;6272603;28;20030;-44
2022/04/09 10:01:51;;;;;;;;;;;21.50;40.50;;;;;;6283506;27;20844;-45
2022/04/09 10:04:54;;;;;;;;;;;21.30;40.40;;;;;;6264223;28;20203;-45
2022/04/09 10:07:56;;;;;;;;;;;21.30;40.30;;;;;;6259831;28;20036;-43
2022/04/09 10:11:00;;;;;;;;;;;21.60;40.40;;;;;;6266463;28;20665;-44
2022/04/09 10:14:03;;;;;;;;;;;21.50;40.40;;;;;;6266323;28;19927;-43
2022/04/09 10:17:06;;;;;;;;;;;21.80;40.50;;;;;;6281920;28;20328;-42
2022/04/09 10:20:08;;;;;;;;;;;21.60;40.40;;;;;;6275106;28;20277;-43
2022/04/09 10:23:10;;;;;;;;;;;21.70;40.40;;;;;;6270635;28;20071;-44
2022/04/09 10:26:11;;;;;;;;;;;21.70;40.40;;;;;;6276679;27;19963;-44
2022/04/09 10:29:13;;;;;;;;;;;21.60;40.30;;;;;;6282920;27;19967;-45
2022/04/09 10:32:29;;;;;;;;;;;21.60;40.30;;;;;;6279765;28;20493;-43
2022/04/09 10:35:38;;;;;;;;;;;21.70;40.30;;;;;;6248500;28;19927;-45
2022/04/09 10:38:41;;;;;;;;;;;21.70;40.30;;;;;;6263067;27;20668;-43
2022/04/09 10:41:42;;;;;;;;;;;21.50;40.10;;;;;;6272663;28;19936;-43
2022/04/09 10:44:52;;;;;;;;;;;21.80;40.30;;;;;;6271787;28;19930;-43
2022/04/09 10:48:05;;;;;;;;;;;21.60;40.20;;;;;;6278877;28;20402;-45
2022/04/09 10:51:08;;;;;;;;;;;21.70;40.20;;;;;;6274304;28;19927;-44
2022/04/09 10:54:19;;;;;;;;;;;22.00;40.40;;;;;;6284046;27;20497;-43
2022/04/09 10:57:22;;;;;;;;;;;21.80;40.30;;;;;;6262805;27;19936;-43
2022/04/09 11:00:33;;;;;;;;;;;21.60;40.10;;;;;;6259381;28;19989;-44
2022/04/09 11:03:34;;;;;;;;;;;21.80;40.20;;;;;;6281769;27;20105;-44
2022/04/09 11:06:43;;;;;;;;;;;21.80;40.20;;;;;;6267230;28;20042;-45
2022/04/09 11:09:48;;;;;;;;;;;21.80;40.10;;;;;;6271025;28;19950;-44
2022/04/09 11:12:49;;;;;;;;;;;21.90;40.20;;;;;;6273795;28;20225;-44
2022/04/09 11:15:54;;;;;;;;;;;21.90;40.10;;;;;;6287934;27;20360;-48
2022/04/09 11:18:55;;;;;;;;;;;21.90;40.30;;;;;;6268775;27;19927;-43
2022/04/09 11:21:58;;;;;;;;;;;21.90;40.10;;;;;;6267859;28;19924;-46
2022/04/09 11:25:00;;;;;;;;;;;21.80;40.10;;;;;;6277483;27;21004;-44
2022/04/09 11:28:05;;;;;;;;;;;21.80;40.00;;;;;;6280587;27;20052;-46
2022/04/09 11:31:06;;;;;;;;;;;21.80;40.00;;;;;;6269982;27;20014;-46
2022/04/09 11:34:08;;;;;;;;;;;22.00;40.10;;;;;;6263425;27;22079;-44
2022/04/09 11:37:10;;;;;;;;;;;22.00;40.00;;;;;;6263060;28;19934;-45
2022/04/09 11:40:15;;;;;;;;;;;22.00;40.10;;;;;;6283756;27;20617;-43
2022/04/09 11:43:17;;;;;;;;;;;22.00;40.00;;;;;;6268814;27;20040;-44
2022/04/09 11:46:18;;;;;;;;;;;22.10;40.00;;;;;;6251744;28;19927;-44
2022/04/09 11:49:20;;;;;;;;;;;22.10;40.10;;;;;;6262923;28;20253;-43
2022/04/09 11:52:25;;;;;;;;;;;22.10;40.00;;;;;;6279207;27;19923;-43
2022/04/09 11:55:28;;;;;;;;;;;22.10;40.00;;;;;;6265579;27;19964;-43
2022/04/09 11:58:30;;;;;;;;;;;21.90;39.80;;;;;;6280512;27;20050;-46
2022/04/09 12:01:31;;;;;;;;;;;21.90;39.80;;;;;;6270310;27;19938;-45
2022/04/09 12:04:34;;;;;;;;;;;22.00;39.80;;;;;;6277489;28;20514;-44
2022/04/09 12:07:40;;;;;;;;;;;22.10;39.90;;;;;;6264674;28;19924;-43
2022/04/09 12:10:54;;;;;;;;;;;22.20;39.90;;;;;;6260967;28;20210;-44
2022/04/09 12:14:07;;;;;;;;;;;22.20;39.90;;;;;;6253744;28;20016;-44
2022/04/09 12:17:09;;;;;;;;;;;22.20;39.90;;;;;;6228711;28;20054;-45
2022/04/09 12:20:24;;;;;;;;;;;22.20;39.80;;;;;;6263139;28;20221;-44
2022/04/09 12:23:30;;;;;;;;;;;22.20;39.80;;;;;;6250776;28;20445;-45
2022/04/09 12:26:33;;;;;;;;;;;22.00;39.70;;;;;;6276705;27;20220;-44
2022/04/09 12:29:46;;;;;;;;;;;22.20;39.80;;;;;;6249039;28;20650;-44
2022/04/09 12:33:06;;;;;;;;;;;22.20;39.70;;;;;;6245523;28;20592;-43
2022/04/09 12:36:08;;;;;;;;;;;22.30;39.70;;;;;;6274677;27;19982;-45
2022/04/09 12:39:24;;;;;;;;;;;22.20;39.60;;;;;;6271638;27;20063;-44
2022/04/09 12:42:31;;;;;;;;;;;22.30;39.70;;;;;;6240017;28;20411;-46
2022/04/09 12:45:32;;;;;;;;;;;22.40;39.70;;;;;;6251455;28;20191;-43
2022/04/09 12:48:42;;;;;;;;;;;22.30;39.60;;;;;;6258173;28;20189;-45
2022/04/09 12:51:43;;;;;;;;;;;22.20;39.60;;;;;;6277107;27;20314;-44
2022/04/09 12:54:44;;;;;;;;;;;22.40;39.70;;;;;;6280804;27;20185;-44
2022/04/09 12:57:47;;;;;;;;;;;22.40;39.60;;;;;;6275837;27;19927;-45
2022/04/09 13:00:48;;;;;;;;;;;22.40;39.60;;;;;;6269871;27;20453;-45
2022/04/09 13:03:55;;;;;;;;;;;22.40;39.60;;;;;;6268940;27;20351;-44
2022/04/09 13:06:56;;;;;;;;;;;22.40;39.50;;;;;;6274687;27;20273;-45
2022/04/09 13:09:57;;;;;;;;;;;22.40;39.50;;;;;;6263440;27;20312;-44
2022/04/09 13:12:59;;;;;;;;;;;22.40;39.50;;;;;;6261284;27;20055;-45
2022/04/09 13:16:00;;;;;;;;;;;22.40;39.50;;;;;;6258709;28;20249;-43
2022/04/09 13:19:02;;;;;;;;;;;22.40;39.50;;;;;;6257195;28;20189;-45
2022/04/09 13:22:04;;;;;;;;;;;22.50;39.50;;;;;;6243996;28;19983;-44
2022/04/09 13:25:06;;;;;;;;;;;22.50;39.50;;;;;;6261709;27;20375;-45
2022/04/09 13:28:10;;;;;;;;;;;22.50;39.50;;;;;;6257806;27;19981;-45
2022/04/09 13:31:11;;;;;;;;;;;22.50;39.40;;;;;;6230327;28;19923;-45
2022/04/09 13:34:16;;;;;;;;;;;22.30;39.30;;;;;;6252105;28;20171;-44
2022/04/09 13:37:20;;;;;;;;;;;22.40;39.30;;;;;;6254031;28;19981;-44
2022/04/09 13:40:21;;;;;;;;;;;22.50;39.30;;;;;;6266508;27;20191;-44
2022/04/09 13:43:23;;;;;;;;;;;22.60;39.40;;;;;;6267204;28;20170;-44
2022/04/09 13:46:24;;;;;;;;;;;22.50;39.30;;;;;;6277495;27;20469;-43
2022/04/09 13:49:26;;;;;;;;;;;22.60;39.30;;;;;;6254959;27;20482;-45
2022/04/09 13:52:31;;;;;;;;;;;22.60;39.30;;;;;;6217980;28;19954;-46
2022/04/09 13:55:33;;;;;;;;;;;22.50;39.20;;;;;;6252913;27;20267;-44
2022/04/09 13:58:35;;;;;;;;;;;22.50;39.80;;;;;;6269151;27;19931;-45
2022/04/09 14:01:36;;;;;;;;;;;22.40;39.10;;;;;;6262010;28;19934;-44
2022/04/09 14:04:38;;;;;;;;;;;22.60;39.20;;;;;;6273643;27;20120;-45
2022/04/09 14:07:39;;;;;;;;;;;22.70;39.20;;;;;;6263293;28;19928;-44
2022/04/09 14:10:41;;;;;;;;;;;22.60;39.20;;;;;;6275676;27;20033;-44
2022/04/09 14:13:43;;;;;;;;;;;22.60;39.20;;;;;;6279162;27;20328;-46
2022/04/09 14:16:45;;;;;;;;;;;22.60;39.20;;;;;;6265632;28;19928;-43
2022/04/09 14:19:47;;;;;;;;;;;22.50;39.10;;;;;;6266806;28;20917;-44
2022/04/09 14:22:48;;;;;;;;;;;22.40;39.00;;;;;;6265559;28;20230;-44
2022/04/09 14:25:50;;;;;;;;;;;22.60;39.10;;;;;;6256630;28;19938;-44
2022/04/09 14:28:53;;;;;;;;;;;22.60;39.00;;;;;;6248809;28;20132;-47
2022/04/09 14:31:54;;;;;;;;;;;22.50;39.00;;;;;;6263181;27;20373;-47
2022/04/09 14:34:55;;;;;;;;;;;22.70;39.10;;;;;;6258722;27;20490;-45
2022/04/09 14:37:57;;;;;;;;;;;22.60;39.00;;;;;;6264235;28;19928;-47
2022/04/09 14:40:58;;;;;;;;;;;22.80;39.10;;;;;;6256915;27;20030;-44
2022/04/09 14:44:00;;;;;;;;;;;22.80;39.10;;;;;;6261180;27;20682;-46
2022/04/09 14:47:02;;;;;;;;;;;22.50;38.90;;;;;;6280163;27;20429;-44
2022/04/09 14:50:04;;;;;;;;;;;22.60;38.90;;;;;;6274887;27;20126;-44
2022/04/09 14:53:05;;;;;;;;;;;22.70;39.00;;;;;;6274176;27;20027;-44
2022/04/09 14:56:08;;;;;;;;;;;22.60;38.90;;;;;;6261020;27;20325;-44
2022/04/09 14:59:10;;;;;;;;;;;22.70;38.90;;;;;;6273546;27;20342;-44
2022/04/09 15:02:12;;;;;;;;;;;22.80;38.90;;;;;;6280583;27;20270;-44
2022/04/09 15:05:14;;;;;;;;;;;22.70;38.90;;;;;;6276596;27;20038;-45
2022/04/09 15:08:15;;;;;;;;;;;22.70;38.80;;;;;;6280796;27;20227;-45
2022/04/09 15:11:16;;;;;;;;;;;22.70;38.80;;;;;;6280798;27;19965;-45
2022/04/09 15:14:18;;;;;;;;;;;22.80;38.80;;;;;;6271803;27;20154;-45
2022/04/09 15:17:20;;;;;;;;;;;22.80;38.80;;;;;;6264246;27;22232;-45
2022/04/09 15:20:21;;;;;;;;;;;22.70;38.40;;;;;;6224414;28;19953;-44
2022/04/09 15:23:22;;;;;;;;;;;22.80;39.00;;;;;;6257143;28;20316;-45
2022/04/09 15:26:25;;;;;;;;;;;22.60;38.60;;;;;;6275296;27;20363;-44
2022/04/09 15:29:27;;;;;;;;;;;22.70;38.60;;;;;;6266402;27;19923;-45
2022/04/09 15:32:30;;;;;;;;;;;22.80;38.70;;;;;;6269652;27;20462;-44
2022/04/09 15:35:32;;;;;;;;;;;22.80;38.60;;;;;;6245376;28;20131;-45
2022/04/09 15:38:38;;;;;;;;;;;22.90;38.60;;;;;;6260578;27;19928;-45
2022/04/09 15:41:39;;;;;;;;;;;22.90;38.60;;;;;;6255333;28;19966;-44
2022/04/09 15:44:41;;;;;;;;;;;22.80;38.60;;;;;;6257579;28;19936;-44
2022/04/09 15:47:43;;;;;;;;;;;22.80;38.60;;;;;;6260117;28;19927;-44
2022/04/09 15:50:44;;;;;;;;;;;22.90;38.50;;;;;;6249288;28;20050;-44
2022/04/09 15:53:45;;;;;;;;;;;23.10;38.60;;;;;;6264261;28;19923;-45
2022/04/09 15:56:47;;;;;;;;;;;22.90;38.50;;;;;;6262106;27;19927;-44
2022/04/09 15:59:49;;;;;;;;;;;23.00;38.50;;;;;;6254877;27;20888;-44
2022/04/09 16:02:50;;;;;;;;;;;22.80;38.40;;;;;;6255674;28;19963;-45
2022/04/09 16:05:52;;;;;;;;;;;22.90;38.40;;;;;;6258393;28;20319;-44
2022/04/09 16:08:54;;;;;;;;;;;22.90;38.40;;;;;;6257420;28;19930;-46
2022/04/09 16:11:55;;;;;;;;;;;23.10;38.50;;;;;;6254132;28;19967;-44
2022/04/09 16:14:57;;;;;;;;;;;22.90;38.40;;;;;;6269729;27;19963;-44
2022/04/09 16:17:58;;;;;;;;;;;22.90;38.60;;;;;;6263026;27;19959;-44
2022/04/09 16:21:00;;;;;;;;;;;22.90;38.30;;;;;;6252168;28;20462;-44
2022/04/09 16:24:01;;;;;;;;;;;22.90;38.30;;;;;;6229158;28;20682;-46
2022/04/09 16:27:03;;;;;;;;;;;23.00;38.30;;;;;;6257883;28;19928;-47
2022/04/09 16:30:06;;;;;;;;;;;23.00;38.30;;;;;;6264070;27;20192;-44
2022/04/09 16:33:07;;;;;;;;;;;23.00;38.30;;;;;;6273041;27;19936;-44
2022/04/09 16:36:09;;;;;;;;;;;22.90;38.30;;;;;;6258921;28;19965;-43
2022/04/09 16:39:11;;;;;;;;;;;22.90;38.20;;;;;;6262322;27;19936;-44
2022/04/09 16:42:13;;;;;;;;;;;23.10;38.30;;;;;;6256791;27;20034;-44
2022/04/09 16:45:15;;;;;;;;;;;23.00;38.20;;;;;;6241134;28;21043;-44
2022/04/09 16:48:17;;;;;;;;;;;23.10;38.20;;;;;;6269642;27;19928;-45
2022/04/09 16:51:18;;;;;;;;;;;22.90;38.10;;;;;;6244273;28;20266;-45
2022/04/09 16:54:20;;;;;;;;;;;23.00;38.10;;;;;;6270412;27;20476;-49
2022/04/09 16:57:21;;;;;;;;;;;23.30;38.20;;;;;;6261688;27;20347;-45
2022/04/09 17:00:23;;;;;;;;;;;23.10;38.10;;;;;;6241905;28;20710;-44
2022/04/09 17:03:25;;;;;;;;;;;22.90;38.00;;;;;;6269113;27;19928;-44
2022/04/09 17:06:27;;;;;;;;;;;23.10;38.10;;;;;;6267225;27;19934;-45
2022/04/09 17:09:29;;;;;;;;;;;23.10;38.10;;;;;;6254820;28;19928;-44
2022/04/09 17:12:30;;;;;;;;;;;23.10;38.10;;;;;;6251975;28;20341;-43
2022/04/09 17:15:32;;;;;;;;;;;23.10;38.10;;;;;;6263542;28;20069;-45
2022/04/09 17:18:34;;;;;;;;;;;23.00;38.00;;;;;;6264037;28;19924;-46
2022/04/09 17:21:35;;;;;;;;;;;23.00;38.00;;;;;;6240914;28;20740;-46
2022/04/09 17:24:37;;;;;;;;;;;23.00;38.00;;;;;;6263928;28;20570;-47
2022/04/09 17:27:38;;;;;;;;;;;23.10;38.00;;;;;;6282810;27;19993;-44
2022/04/09 17:30:40;;;;;;;;;;;23.10;38.00;;;;;;6266315;28;20684;-44
2022/04/09 17:33:41;;;;;;;;;;;23.10;38.00;;;;;;6262054;28;20274;-44
2022/04/09 17:36:44;;;;;;;;;;;23.00;38.00;;;;;;6244483;28;19936;-45
2022/04/09 17:39:45;;;;;;;;;;;22.90;37.90;;;;;;6276626;27;20887;-44
2022/04/09 17:42:47;;;;;;;;;;;23.00;37.90;;;;;;6269504;27;19928;-44